createdAt,value
2017-12-22T00:01:23.810Z,101871.92
2017-12-22T00:04:25.810Z,101866.94
2017-12-22T00:07:27.092Z,101866.22
2017-12-22T00:10:28.375Z,101866.90
2017-12-22T00:13:29.677Z,101871.91
2017-12-22T00:16:30.969Z,101864.03
2017-12-22T00:19:33.238Z,101863.14
2017-12-22T00:22:36.263Z,101853.83
2017-12-22T00:25:37.564Z,101853.65
2017-12-22T00:28:39.644Z,101844.79
2017-12-22T00:31:41.705Z,101843.59
2017-12-22T00:34:43.834Z,101840.91
2017-12-22T00:37:45.160Z,101839.66
2017-12-22T00:40:47.153Z,101831.80
2017-12-22T00:43:48.413Z,101832.16
2017-12-22T00:46:49.732Z,101828.64
2017-12-22T00:49:51.074Z,101834.24
2017-12-22T00:52:52.342Z,101822.78
2017-12-22T00:55:53.847Z,101822.02
2017-12-22T00:58:55.187Z,101815.42
2017-12-22T01:01:57.188Z,101815.41
2017-12-22T01:04:58.468Z,101811.45
2017-12-22T01:07:59.730Z,101805.30
2017-12-22T01:11:01.020Z,101799.13
2017-12-22T01:14:02.305Z,101807.52
2017-12-22T01:17:09.622Z,101807.45
2017-12-22T01:20:11.228Z,101791.60
2017-12-22T01:23:12.691Z,101802.65
2017-12-22T01:26:14.025Z,101810.19
2017-12-22T01:29:15.276Z,101791.16
2017-12-22T01:32:16.536Z,101788.09
2017-12-22T01:35:17.746Z,101794.68
2017-12-22T01:38:19.760Z,101803.09
2017-12-22T01:41:20.969Z,101805.25
2017-12-22T01:44:22.252Z,101805.27
2017-12-22T01:47:23.632Z,101796.91
2017-12-22T01:50:24.876Z,101805.75
2017-12-22T01:53:26.154Z,101807.94
2017-12-22T01:56:28.117Z,101800.94
2017-12-22T01:59:30.116Z,101808.02
2017-12-22T02:02:31.329Z,101808.84
2017-12-22T02:05:33.333Z,101817.19
2017-12-22T02:08:34.605Z,101806.72
2017-12-22T02:11:35.844Z,101800.97
2017-12-22T02:14:37.101Z,101807.21
2017-12-22T02:17:38.362Z,101795.27
2017-12-22T02:20:39.665Z,101791.73
2017-12-22T02:23:41.118Z,101793.52
2017-12-22T02:26:42.377Z,101792.18
2017-12-22T02:29:43.632Z,101782.50
2017-12-22T02:32:44.941Z,101777.64
2017-12-22T02:35:46.198Z,101767.05
2017-12-22T02:38:47.462Z,101762.63
2017-12-22T02:41:48.738Z,101757.80
2017-12-22T02:44:49.967Z,101760.42
2017-12-22T02:47:51.572Z,101757.80
2017-12-22T02:50:53.610Z,101764.86
2017-12-22T02:53:54.857Z,101748.53
2017-12-22T02:56:56.109Z,101760.05
2017-12-22T02:59:57.349Z,101752.56
2017-12-22T03:02:58.597Z,101753.41
2017-12-22T03:05:59.832Z,101745.04
2017-12-22T03:09:01.112Z,101740.61
2017-12-22T03:12:02.376Z,101748.99
2017-12-22T03:15:04.348Z,101733.11
2017-12-22T03:18:06.380Z,101735.31
2017-12-22T03:21:07.628Z,101738.83
2017-12-22T03:24:08.904Z,101725.61
2017-12-22T03:27:17.717Z,101727.81
2017-12-22T03:30:18.989Z,101718.99
2017-12-22T03:33:20.212Z,101724.29
2017-12-22T03:36:21.458Z,101707.06
2017-12-22T03:39:22.712Z,101721.67
2017-12-22T03:42:24.693Z,101717.69
2017-12-22T03:45:26.697Z,101715.45
2017-12-22T03:48:27.996Z,101702.25
2017-12-22T03:51:30.013Z,101706.20
2017-12-22T03:54:31.259Z,101700.03
2017-12-22T03:57:32.525Z,101697.34
2017-12-22T04:00:33.733Z,101704.42
2017-12-22T04:03:35.028Z,101704.47
2017-12-22T04:06:36.292Z,101710.64
2017-12-22T04:09:37.854Z,101711.53
2017-12-22T04:12:39.847Z,101705.30
2017-12-22T04:15:41.087Z,101710.59
2017-12-22T04:18:42.380Z,101703.51
2017-12-22T04:21:44.412Z,101716.98
2017-12-22T04:24:45.672Z,101710.91
2017-12-22T04:27:46.917Z,101707.97
2017-12-22T04:30:48.136Z,101715.33
2017-12-22T04:33:50.153Z,101702.44
2017-12-22T04:36:51.382Z,101706.88
2017-12-22T04:39:52.668Z,101716.65
2017-12-22T04:42:53.936Z,101712.75
2017-12-22T04:45:55.929Z,101707.52
2017-12-22T04:48:57.293Z,101710.55
2017-12-22T04:51:58.526Z,101706.20
2017-12-22T04:54:59.796Z,101713.33
2017-12-22T04:58:01.045Z,101705.66
2017-12-22T05:01:02.328Z,101714.53
2017-12-22T05:04:03.542Z,101704.89
2017-12-22T05:07:04.793Z,101701.34
2017-12-22T05:10:06.040Z,101703.98
2017-12-22T05:13:07.313Z,101710.23
2017-12-22T05:16:08.553Z,101710.67
2017-12-22T05:19:09.821Z,101714.70
2017-12-22T05:22:11.069Z,101716.42
2017-12-22T05:25:12.310Z,101710.27
2017-12-22T05:28:13.550Z,101712.91
2017-12-22T05:31:14.806Z,101710.48
2017-12-22T05:34:16.057Z,101707.41
2017-12-22T05:37:17.309Z,101704.70
2017-12-22T05:40:18.552Z,101709.05
2017-12-22T05:43:19.826Z,101704.50
2017-12-22T05:46:21.798Z,101704.84
2017-12-22T05:49:23.116Z,101706.39
2017-12-22T05:52:24.350Z,101705.45
2017-12-22T05:55:25.608Z,101705.02
2017-12-22T05:58:26.892Z,101697.41
2017-12-22T06:01:28.126Z,101695.04
2017-12-22T06:04:30.145Z,101695.90
2017-12-22T06:07:31.384Z,101690.14
2017-12-22T06:10:32.660Z,101698.05
2017-12-22T06:13:33.886Z,101699.56
2017-12-22T06:16:35.149Z,101702.25
2017-12-22T06:19:36.449Z,101711.48
2017-12-22T06:22:37.701Z,101712.81
2017-12-22T06:25:38.961Z,101713.03
2017-12-22T06:28:40.205Z,101703.09
2017-12-22T06:31:41.448Z,101703.60
2017-12-22T06:34:42.706Z,101700.53
2017-12-22T06:37:43.984Z,101708.95
2017-12-22T06:40:45.263Z,101696.59
2017-12-22T06:43:47.235Z,101695.72
2017-12-22T06:46:49.233Z,101700.58
2017-12-22T06:49:50.479Z,101708.10
2017-12-22T06:52:51.799Z,101699.27
2017-12-22T06:55:53.036Z,101702.34
2017-12-22T06:58:55.033Z,101693.94
2017-12-22T07:01:56.254Z,101702.31
2017-12-22T07:04:58.283Z,101705.84
2017-12-22T07:07:59.576Z,101695.25
2017-12-22T07:11:01.560Z,101702.78
2017-12-22T07:14:02.813Z,101711.18
2017-12-22T07:17:04.044Z,101714.70
2017-12-22T07:20:05.321Z,101717.80
2017-12-22T07:23:06.568Z,101723.99
2017-12-22T07:26:07.838Z,101718.69
2017-12-22T07:29:09.090Z,101722.22
2017-12-22T07:32:10.349Z,101727.05
2017-12-22T07:35:11.621Z,101751.80
2017-12-22T07:38:13.632Z,101754.02
2017-12-22T07:41:14.884Z,101753.56
2017-12-22T07:44:16.122Z,101754.89
2017-12-22T07:47:17.389Z,101750.05
2017-12-22T07:50:18.635Z,101751.83
2017-12-22T07:53:19.947Z,101753.58
2017-12-22T07:56:21.190Z,101765.53
2017-12-22T07:59:22.410Z,101766.40
2017-12-22T08:02:24.437Z,101783.63
2017-12-22T08:05:25.692Z,101776.98
2017-12-22T08:08:26.998Z,101774.34
2017-12-22T08:11:28.505Z,101789.34
2017-12-22T08:14:30.005Z,101785.38
2017-12-22T08:17:31.273Z,101783.63
2017-12-22T08:20:32.504Z,101780.95
2017-12-22T08:23:33.808Z,101781.41
2017-12-22T08:26:35.066Z,101774.78
2017-12-22T08:29:36.337Z,101780.97
2017-12-22T08:32:38.319Z,101791.14
2017-12-22T08:35:39.582Z,101795.58
2017-12-22T08:38:40.824Z,101804.83
2017-12-22T08:41:42.118Z,101812.34
2017-12-22T08:44:43.380Z,101801.73
2017-12-22T08:47:45.353Z,101796.90
2017-12-22T08:50:47.421Z,101795.56
2017-12-22T08:53:49.426Z,101803.95
2017-12-22T08:56:50.702Z,101817.23
2017-12-22T08:59:51.941Z,101815.89
2017-12-22T09:02:53.227Z,101828.27
2017-12-22T09:05:55.205Z,101817.66
2017-12-22T09:08:56.475Z,101825.63
2017-12-22T09:11:57.761Z,101833.13
2017-12-22T09:14:58.990Z,101827.38
2017-12-22T09:18:00.276Z,101836.31
2017-12-22T09:21:02.229Z,101838.88
2017-12-22T09:24:03.509Z,101847.20
2017-12-22T09:27:04.739Z,101840.89
2017-12-22T09:30:06.797Z,101846.70
2017-12-22T09:33:07.982Z,101857.00
2017-12-22T09:36:09.228Z,101845.59
2017-12-22T09:39:10.488Z,101843.84
2017-12-22T09:42:11.740Z,101834.15
2017-12-22T09:45:13.023Z,101840.32
2017-12-22T09:48:14.306Z,101838.55
2017-12-22T09:51:15.605Z,101850.05
2017-12-22T09:54:16.910Z,101857.57
2017-12-22T09:57:18.148Z,101861.91
2017-12-22T10:00:20.181Z,101852.61
2017-12-22T10:03:28.377Z,101866.84
2017-12-22T10:06:29.641Z,101864.20
2017-12-22T10:09:30.889Z,101869.05
2017-12-22T10:12:32.135Z,101870.38
2017-12-22T10:15:33.388Z,101860.21
2017-12-22T10:18:34.597Z,101842.52
2017-12-22T10:21:35.901Z,101841.19
2017-12-22T10:24:38.149Z,101852.69
2017-12-22T10:27:39.404Z,101845.16
2017-12-22T10:30:40.646Z,101849.16
2017-12-22T10:33:41.885Z,101854.91
2017-12-22T10:36:43.162Z,101863.75
2017-12-22T10:39:45.145Z,101854.89
2017-12-22T10:42:47.176Z,101861.92
2017-12-22T10:45:48.421Z,101868.55
2017-12-22T10:48:49.660Z,101865.05
2017-12-22T10:51:57.848Z,101860.66
2017-12-22T10:54:59.119Z,101853.52
2017-12-22T10:58:00.393Z,101850.03
2017-12-22T11:01:02.419Z,101854.48
2017-12-22T11:04:03.664Z,101858.45
2017-12-22T11:07:04.948Z,101854.91
2017-12-22T11:10:06.196Z,101844.73
2017-12-22T11:13:07.468Z,101832.36
2017-12-22T11:16:09.462Z,101856.26
2017-12-22T11:19:10.718Z,101859.36
2017-12-22T11:22:11.953Z,101850.49
2017-12-22T11:25:13.221Z,101842.53
2017-12-22T11:28:14.469Z,101848.31
2017-12-22T11:31:15.708Z,101847.85
2017-12-22T11:34:16.997Z,101857.59
2017-12-22T11:37:18.282Z,101840.77
2017-12-22T11:40:19.600Z,101844.31
2017-12-22T11:43:20.845Z,101845.64
2017-12-22T11:46:22.844Z,101848.28
2017-12-22T11:49:24.231Z,101850.52
2017-12-22T11:52:25.458Z,101857.57
2017-12-22T11:55:26.735Z,101854.93
2017-12-22T11:58:28.554Z,101863.33
2017-12-22T12:01:30.659Z,101854.92
2017-12-22T12:04:31.883Z,101863.31
2017-12-22T12:07:33.108Z,101864.66
2017-12-22T12:10:34.341Z,101868.63
2017-12-22T12:13:36.303Z,101865.96
2017-12-22T12:16:38.325Z,101869.51
2017-12-22T12:19:39.533Z,101876.59
2017-12-22T12:22:40.788Z,101859.33
2017-12-22T12:25:42.189Z,101866.41
2017-12-22T12:28:44.968Z,101871.71
2017-12-22T12:31:46.681Z,101877.47
2017-12-22T12:34:47.921Z,101873.50
2017-12-22T12:37:49.201Z,101873.49
2017-12-22T12:40:52.027Z,101866.86
2017-12-22T12:43:54.343Z,101871.71
2017-12-22T12:46:56.047Z,101874.81
2017-12-22T12:49:57.305Z,101871.73
2017-12-22T12:52:59.169Z,101877.02
2017-12-22T12:56:01.039Z,101873.94
2017-12-22T12:59:02.430Z,101875.27
2017-12-22T13:02:04.393Z,101870.84
2017-12-22T13:05:06.695Z,101869.52
2017-12-22T13:08:08.437Z,101870.39
2017-12-22T13:11:09.966Z,101866.43
2017-12-22T13:14:12.491Z,101842.98
2017-12-22T13:17:14.564Z,101865.11
2017-12-22T13:20:15.848Z,101854.91
2017-12-22T13:23:17.847Z,101865.11
2017-12-22T13:26:19.090Z,101861.56
2017-12-22T13:29:20.304Z,101851.41
2017-12-22T13:32:22.286Z,101851.83
2017-12-22T13:35:23.552Z,101847.42
2017-12-22T13:38:24.849Z,101845.63
2017-12-22T13:41:26.132Z,101858.45
2017-12-22T13:44:27.413Z,101855.81
2017-12-22T13:47:28.648Z,101858.47
2017-12-22T13:50:29.904Z,101851.39
2017-12-22T13:53:31.146Z,101850.52
2017-12-22T13:56:32.372Z,101842.10
2017-12-22T13:59:33.659Z,101846.97
2017-12-22T14:02:34.886Z,101849.19
2017-12-22T14:05:36.156Z,101843.45
2017-12-22T14:08:37.365Z,101848.31
2017-12-22T14:11:38.613Z,101847.86
2017-12-22T14:14:39.874Z,101856.25
2017-12-22T14:17:41.090Z,101871.28
2017-12-22T14:20:43.082Z,101858.02
2017-12-22T14:23:44.304Z,101864.66
2017-12-22T14:26:46.311Z,101860.69
2017-12-22T14:29:47.530Z,101861.11
2017-12-22T14:32:48.804Z,101867.32
2017-12-22T14:35:50.204Z,101855.38
2017-12-22T14:38:52.178Z,101849.19
2017-12-22T14:41:54.172Z,101855.36
2017-12-22T14:44:55.394Z,101861.14
2017-12-22T14:47:56.668Z,101860.69
2017-12-22T14:51:00.026Z,101863.75
2017-12-22T14:54:02.024Z,101862.00
2017-12-22T14:57:03.393Z,101864.20
2017-12-22T15:00:04.702Z,101872.60
2017-12-22T15:03:06.709Z,101880.13
2017-12-22T15:06:07.930Z,101881.45
2017-12-22T15:09:09.208Z,101883.67
2017-12-22T15:12:10.421Z,101881.45
2017-12-22T15:15:11.682Z,101879.23
2017-12-22T15:18:13.302Z,101885.00
2017-12-22T15:21:14.996Z,101888.51
2017-12-22T15:24:17.248Z,101885.42
2017-12-22T15:27:19.008Z,101894.27
2017-12-22T15:30:20.329Z,101907.09
2017-12-22T15:33:21.558Z,101903.56
2017-12-22T15:36:23.874Z,101907.09
2017-12-22T15:39:25.883Z,101911.97
2017-12-22T15:42:27.550Z,101925.23
2017-12-22T15:45:29.624Z,101924.78
2017-12-22T15:48:30.856Z,101928.29
2017-12-22T15:51:32.148Z,101919.45
2017-12-22T15:54:34.140Z,101921.22
2017-12-22T15:57:42.409Z,101925.51
2017-12-22T16:00:43.682Z,101931.75
2017-12-22T16:03:45.697Z,101935.73
2017-12-22T16:06:46.988Z,101936.22
2017-12-22T16:09:48.944Z,101942.89
2017-12-22T16:12:50.210Z,101951.23
2017-12-22T16:15:52.191Z,101944.23
2017-12-22T16:18:53.449Z,101949.11
2017-12-22T16:21:54.782Z,101957.51
2017-12-22T16:24:55.981Z,101955.70
2017-12-22T16:27:57.252Z,101947.31
2017-12-22T16:30:58.500Z,101917.58
2017-12-22T16:34:00.475Z,101941.08
2017-12-22T16:37:01.697Z,101952.14
2017-12-22T16:40:02.962Z,101953.03
2017-12-22T16:43:04.952Z,101953.48
2017-12-22T16:46:06.204Z,101952.08
2017-12-22T16:49:07.472Z,101964.09
2017-12-22T16:52:08.725Z,101957.41
2017-12-22T16:55:09.960Z,101953.84
2017-12-22T16:58:11.177Z,101962.66
2017-12-22T17:01:13.204Z,101966.20
2017-12-22T17:04:14.515Z,101961.78
2017-12-22T17:07:15.800Z,101975.94
2017-12-22T17:10:17.771Z,101975.93
2017-12-22T17:13:19.079Z,101967.52
2017-12-22T17:16:20.339Z,102007.77
2017-12-22T17:19:21.585Z,101973.28
2017-12-22T17:22:22.852Z,101969.77
2017-12-22T17:25:24.889Z,101965.32
2017-12-22T17:28:26.152Z,101966.16
2017-12-22T17:31:28.652Z,101971.94
2017-12-22T17:34:29.937Z,101973.69
2017-12-22T17:37:31.931Z,101971.00
2017-12-22T17:40:33.216Z,101968.34
2017-12-22T17:43:35.619Z,101985.16
2017-12-22T17:46:37.608Z,101966.56
2017-12-22T17:49:38.887Z,101974.97
2017-12-22T17:52:41.036Z,101986.03
2017-12-22T17:55:42.273Z,101975.39
2017-12-22T17:58:43.561Z,101990.00
2017-12-22T18:01:45.189Z,102002.80
2017-12-22T18:04:46.517Z,102003.70
2017-12-22T18:07:48.601Z,102004.50
2017-12-22T18:10:49.904Z,102002.61
2017-12-22T18:13:52.461Z,102012.89
2017-12-22T18:16:53.710Z,102008.94
2017-12-22T18:19:54.954Z,102010.73
2017-12-22T18:22:57.101Z,102020.51
2017-12-22T18:25:58.404Z,102023.13
2017-12-22T18:28:59.755Z,102017.34
2017-12-22T18:32:01.054Z,102024.26
2017-12-22T18:35:02.281Z,102019.48
2017-12-22T18:38:03.561Z,102022.52
2017-12-22T18:41:04.778Z,102026.44
2017-12-22T18:44:06.297Z,102025.23
2017-12-22T18:47:07.528Z,102017.20
2017-12-22T18:50:12.608Z,102029.17
2017-12-22T18:53:13.905Z,102032.75
2017-12-22T18:56:15.148Z,102035.90
2017-12-22T18:59:16.393Z,102035.97
2017-12-22T19:02:17.609Z,102036.73
2017-12-22T19:05:18.862Z,102036.75
2017-12-22T19:08:20.098Z,102031.81
2017-12-22T19:11:21.338Z,102045.02
2017-12-22T19:14:22.667Z,102054.73
2017-12-22T19:17:24.755Z,102050.75
2017-12-22T19:20:26.729Z,102049.92
2017-12-22T19:23:27.968Z,102051.64
2017-12-22T19:26:29.975Z,102039.20
2017-12-22T19:29:31.259Z,102045.42
2017-12-22T19:32:32.818Z,102047.53
2017-12-22T19:35:35.242Z,102051.12
2017-12-22T19:38:36.864Z,102055.04
2017-12-22T19:41:38.591Z,102054.17
2017-12-22T19:44:39.886Z,102060.76
2017-12-22T19:47:41.163Z,102063.48
2017-12-22T19:50:42.401Z,102045.39
2017-12-22T19:53:43.690Z,102056.86
2017-12-22T19:56:44.981Z,102050.23
2017-12-22T19:59:46.236Z,102060.83
2017-12-22T20:02:47.562Z,102044.55
2017-12-22T20:05:49.526Z,102049.84
2017-12-22T20:08:51.518Z,102044.50
2017-12-22T20:11:52.758Z,102050.25
2017-12-22T20:14:54.036Z,102056.27
2017-12-22T20:17:55.273Z,102053.26
2017-12-22T20:20:56.611Z,102046.00
2017-12-22T20:23:57.957Z,102038.03
2017-12-22T20:26:59.402Z,102041.66
2017-12-22T20:30:00.693Z,102036.70
2017-12-22T20:33:01.982Z,102042.34
2017-12-22T20:36:03.249Z,102043.47
2017-12-22T20:39:04.710Z,102035.78
2017-12-22T20:42:06.109Z,102043.06
2017-12-22T20:45:07.392Z,102036.66
2017-12-22T20:48:08.862Z,102037.61
2017-12-22T20:51:10.463Z,102036.34
2017-12-22T20:54:11.711Z,102044.70
2017-12-22T20:57:12.987Z,102038.98
2017-12-22T21:00:15.916Z,102038.06
2017-12-22T21:03:17.203Z,102043.61
2017-12-22T21:06:18.682Z,102054.81
2017-12-22T21:09:20.240Z,102051.84
2017-12-22T21:12:21.620Z,102061.05
2017-12-22T21:15:23.426Z,102051.02
2017-12-22T21:18:25.601Z,102055.70
2017-12-22T21:21:27.176Z,102055.05
2017-12-22T21:24:29.231Z,102042.39
2017-12-22T21:27:31.237Z,102041.78
2017-12-22T21:30:32.522Z,102039.02
2017-12-22T21:33:34.980Z,102032.27
2017-12-22T21:36:36.923Z,102024.53
2017-12-22T21:39:38.256Z,102029.38
2017-12-22T21:42:39.536Z,102028.86
2017-12-22T21:45:42.141Z,102026.23
2017-12-22T21:48:44.204Z,102041.62
2017-12-22T21:51:45.894Z,102040.81
2017-12-22T21:54:48.258Z,102044.89
2017-12-22T21:57:50.326Z,102047.47
2017-12-22T22:00:52.394Z,102052.16
2017-12-22T22:03:55.491Z,102053.09
2017-12-22T22:06:57.920Z,102062.67
2017-12-22T22:09:59.197Z,102071.13
2017-12-22T22:13:01.262Z,102063.21
2017-12-22T22:16:02.711Z,102081.24
2017-12-22T22:19:04.761Z,102081.27
2017-12-22T22:22:06.582Z,102082.20
2017-12-22T22:25:08.061Z,102090.13
2017-12-22T22:28:09.797Z,102092.92
2017-12-22T22:31:11.158Z,102056.20
2017-12-22T22:34:12.896Z,102092.03
2017-12-22T22:37:14.176Z,102082.33
2017-12-22T22:40:15.531Z,102092.86
2017-12-22T22:43:16.807Z,102080.31
2017-12-22T22:46:18.492Z,102088.48
2017-12-22T22:49:21.739Z,102074.14
2017-12-22T22:52:24.022Z,102079.46
2017-12-22T22:55:26.344Z,102052.88
2017-12-22T22:58:27.687Z,102047.20
2017-12-22T23:01:28.980Z,102024.12
2017-12-22T23:04:30.201Z,102027.64
2017-12-22T23:07:31.450Z,102044.03
2017-12-22T23:10:32.712Z,102039.37
2017-12-22T23:13:33.972Z,102040.97
2017-12-22T23:16:35.236Z,102036.23
2017-12-22T23:19:36.445Z,102035.08
2017-12-22T23:22:37.691Z,102045.50
2017-12-22T23:25:38.935Z,102051.78
2017-12-22T23:28:40.206Z,102044.03
2017-12-22T23:31:53.657Z,102026.20
2017-12-22T23:34:55.046Z,102016.44
2017-12-22T23:37:57.113Z,102013.59
2017-12-22T23:40:59.115Z,102005.89
2017-12-22T23:44:00.388Z,102000.47
2017-12-22T23:47:02.441Z,102009.63
2017-12-22T23:50:03.767Z,102007.84
2017-12-22T23:53:05.065Z,102007.48
2017-12-22T23:56:06.324Z,102019.14
2017-12-22T23:59:07.589Z,102012.74
